Startpagina
METAR-TAF:

METAR-TAF

Vliegvelden :

Luchthaven Larnaca

Larnaca, Cyprus

breedte: 34-53N, lengte: 033-38E, hoogte: 2 m

Actueel weer

Dit bericht is 30 minuten geleden gemaakt, om 05:00 UTC
Wind 2 kt uit variabele richting
Temperatuur 28°C
Vochtigheid 42%
Druk 1011 hPa
Zicht 10 km of meer
geen wolken onder 1500 m en geen cumulonimbus

METAR: LCLK 210500Z VRB02KT CAVOK 28/14 Q1011 NOSIG

Tijdstip: 08:30 (05:30 UTC)

Verwachting

Dit bericht is 6 uur en het 0 minuten geleden gemaakt, om 23:30 UTC
Verwachting geldig van 21 om 00 UTC tot 21 om 24 UTC
Wind 8 kt uit het noordnoordwesten
Zicht 10 km of meer
Weinig wolken op 2500 ft
Wijzigt naar
van 21 om 07 UTC tot 21 om 11 UTC
Wind 14 kt uit het zuidzuidwesten
Wijzigt naar
tussen 21 en het 5/ UTC
Wind 6 kt uit het noordwesten

TAF: LCLK 202330Z 2100/2124 34008KT 9999 FEW025 BECMG 2107/2111 21014KT BECMG 215/2119 32006KT

Waarnemingen en weersverwachtingen van meer dan 4000 vliegvelden (METAR en TAF).

De beschikbare stations zijn de gele en rode punten op de kaart.

Ga met uw muis naar het station om de naam te zien.

Klik dan om waarnemingen en weersverwachtingen te zien.

kaart wijzigen: klik op de groene knoppen met een zwart kruis om in te zoomen, op de groene knop met een streepje om uit te zoomen of op de groene pijlen voor aangrenzende kaarten.


METAR-TAF: